N230SM GMFB-GMTT
Flight info
| Callsign | N230SM |
|---|---|
| Flight time | N/A |
| Altitude | 43000 |
| Route | BRF UW255 FES UM240 MADOV |
| Aircraft | C750/M-SBDE3FGHRWXY/S |
Departure
| Time | 2026-04-17 13:35 |
|---|---|
| Airport | Bouarfa Airport (GMFB) |
Arrival
| Time | N/A |
|---|---|
| Airport | Tangier Ibn Battuta Airport (GMTT) |
| Time | Latitude | Longitude | Altitude | Speed | Heading |
|---|---|---|---|---|---|
| 2026-04-17 12:58 | 32.51665 | -1.97664 | 3663 ft | 0 kts | 135° |
| 2026-04-17 13:31 | 32.51635 | -1.97660 | 3663 ft | 14 kts | 200° |
| 2026-04-17 13:31 | 32.51608 | -1.97787 | 3661 ft | 16 kts | 266° |
| 2026-04-17 13:32 | 32.51555 | -1.97829 | 3660 ft | 7 kts | 175° |
| 2026-04-17 13:32 | 32.51526 | -1.97830 | 3660 ft | 0 kts | 177° |
| 2026-04-17 13:32 | 32.51517 | -1.97830 | 3660 ft | 6 kts | 177° |
| 2026-04-17 13:33 | 32.51429 | -1.98029 | 3656 ft | 46 kts | 271° |
| 2026-04-17 13:33 | 32.51431 | -1.98329 | 3646 ft | 67 kts | 270° |
| 2026-04-17 13:33 | 32.51431 | -1.98854 | 3634 ft | 58 kts | 270° |
| 2026-04-17 13:33 | 32.51431 | -1.99289 | 3628 ft | 46 kts | 270° |
| 2026-04-17 13:34 | 32.51416 | -1.99619 | 3622 ft | 36 kts | 270° |
| 2026-04-17 13:34 | 32.51455 | -1.99878 | 3614 ft | 21 kts | 302° |
| 2026-04-17 13:34 | 32.51433 | -1.99902 | 3614 ft | 0 kts | 87° |
| 2026-04-17 13:35 | 32.51434 | -1.99804 | 3615 ft | 49 kts | 89° |
| 2026-04-17 13:35 | 32.51431 | -1.98954 | 3635 ft | 144 kts | 90° |
| 2026-04-17 13:35 | 32.51418 | -1.97637 | 3964 ft | 171 kts | 90° |
| 2026-04-17 13:35 | 32.51441 | -1.96141 | 4533 ft | 192 kts | 88° |
| 2026-04-17 13:36 | 32.51496 | -1.94491 | 5069 ft | 209 kts | 87° |
| 2026-04-17 13:36 | 32.51548 | -1.92713 | 5592 ft | 222 kts | 88° |
| 2026-04-17 13:36 | 32.51598 | -1.90864 | 6114 ft | 227 kts | 88° |
| 2026-04-17 13:36 | 32.51642 | -1.88979 | 6634 ft | 230 kts | 87° |
| 2026-04-17 13:37 | 32.51677 | -1.87064 | 7101 ft | 234 kts | 87° |
| 2026-04-17 13:37 | 32.51705 | -1.85118 | 7582 ft | 237 kts | 88° |
| 2026-04-17 13:37 | 32.51726 | -1.83182 | 8066 ft | 239 kts | 87° |
| 2026-04-17 13:37 | 32.51890 | -1.81228 | 8486 ft | 239 kts | 69° |
| 2026-04-17 13:38 | 32.52934 | -1.79752 | 8790 ft | 247 kts | 29° |
| 2026-04-17 13:38 | 32.54686 | -1.79322 | 8971 ft | 267 kts | 355° |
| 2026-04-17 13:38 | 32.56440 | -1.80050 | 8992 ft | 276 kts | 330° |
| 2026-04-17 13:38 | 32.57755 | -1.81669 | 8974 ft | 279 kts | 302° |
| 2026-04-17 13:39 | 32.58475 | -1.83813 | 9010 ft | 281 kts | 290° |
| 2026-04-17 13:39 | 32.59105 | -1.86011 | 9002 ft | 281 kts | 292° |
| 2026-04-17 13:39 | 32.59886 | -1.88137 | 8995 ft | 281 kts | 297° |
| 2026-04-17 13:39 | 32.60747 | -1.90212 | 8989 ft | 282 kts | 297° |
| 2026-04-17 13:40 | 32.61572 | -1.92318 | 9022 ft | 280 kts | 295° |
| 2026-04-17 13:40 | 32.62363 | -1.94435 | 9153 ft | 281 kts | 295° |
| 2026-04-17 13:40 | 32.63165 | -1.96545 | 9180 ft | 281 kts | 296° |
| 2026-04-17 13:40 | 32.63977 | -1.98649 | 9174 ft | 281 kts | 296° |
| 2026-04-17 13:41 | 32.64789 | -2.00760 | 9173 ft | 280 kts | 296° |
| 2026-04-17 13:41 | 32.65596 | -2.02874 | 9178 ft | 280 kts | 295° |
| 2026-04-17 13:41 | 32.66401 | -2.04983 | 9175 ft | 280 kts | 296° |
| 2026-04-17 13:41 | 32.67202 | -2.07080 | 9380 ft | 274 kts | 296° |
| 2026-04-17 13:42 | 32.67998 | -2.09161 | 10161 ft | 280 kts | 296° |
| 2026-04-17 13:42 | 32.68813 | -2.11293 | 10881 ft | 289 kts | 296° |
| 2026-04-17 13:42 | 32.69657 | -2.13504 | 11617 ft | 297 kts | 296° |
| 2026-04-17 13:42 | 32.70520 | -2.15770 | 12365 ft | 305 kts | 296° |
| 2026-04-17 13:43 | 32.71401 | -2.18084 | 13132 ft | 311 kts | 296° |
| 2026-04-17 13:43 | 32.72302 | -2.20451 | 13920 ft | 317 kts | 296° |
| 2026-04-17 13:43 | 32.73219 | -2.22861 | 14613 ft | 323 kts | 296° |
| 2026-04-17 13:43 | 32.74152 | -2.25315 | 15329 ft | 327 kts | 295° |
| 2026-04-17 13:44 | 32.75094 | -2.27797 | 16058 ft | 332 kts | 295° |
| 2026-04-17 13:44 | 32.76051 | -2.30317 | 16796 ft | 337 kts | 295° |
| 2026-04-17 13:44 | 32.77017 | -2.32864 | 17561 ft | 341 kts | 295° |
| 2026-04-17 13:44 | 32.77998 | -2.35452 | 18350 ft | 346 kts | 295° |
| 2026-04-17 13:45 | 32.78992 | -2.38078 | 19058 ft | 350 kts | 295° |
| 2026-04-17 13:45 | 32.79997 | -2.40733 | 19762 ft | 355 kts | 295° |
| 2026-04-17 13:45 | 32.81015 | -2.43424 | 20489 ft | 359 kts | 295° |
| 2026-04-17 13:45 | 32.82045 | -2.46153 | 21232 ft | 363 kts | 295° |
| 2026-04-17 13:46 | 32.83082 | -2.48899 | 21992 ft | 367 kts | 295° |
| 2026-04-17 13:46 | 32.84129 | -2.51676 | 22776 ft | 369 kts | 295° |
| 2026-04-17 13:46 | 32.85185 | -2.54478 | 23582 ft | 372 kts | 295° |
| 2026-04-17 13:46 | 32.86243 | -2.57286 | 24288 ft | 373 kts | 295° |
| 2026-04-17 13:47 | 32.87304 | -2.60107 | 24976 ft | 374 kts | 295° |
| 2026-04-17 13:47 | 32.88368 | -2.62937 | 25686 ft | 375 kts | 295° |
| 2026-04-17 13:47 | 32.89434 | -2.65775 | 26407 ft | 375 kts | 295° |
| 2026-04-17 13:47 | 32.90496 | -2.68606 | 27155 ft | 375 kts | 294° |
| 2026-04-17 13:48 | 32.91540 | -2.71389 | 27903 ft | 374 kts | 294° |
| 2026-04-17 13:48 | 32.92619 | -2.74269 | 28706 ft | 374 kts | 294° |
| 2026-04-17 13:48 | 32.93660 | -2.77049 | 29497 ft | 373 kts | 294° |